This is the latest recevied weather packets stored in our database for station/object W4TBD-13. If no packets are shown the sender has not sent any weather packets the latest 10 day(s).
| Time | Temp. | Humidity | Pressure | Rain* | Wind** | Luminosity | Snow |
|---|---|---|---|---|---|---|---|
| 1777683605 | 15.56° C | 59% | 1001.8 hPa | 0 mm | - | 0 W/m² | - |
| 1777682406 | 16.11° C | 57% | 1001.3 hPa | 0 mm | - | 0 W/m² | - |
| 1777681205 | 16.67° C | 54% | 1001.5 hPa | 0 mm | - | 0 W/m² | - |
| 1777680905 | 16.67° C | 53% | 1001.2 hPa | 0 mm | - | 0 W/m² | - |
| 1777680305 | 17.22° C | 51% | 1001.6 hPa | 0 mm | - | 0 W/m² | - |
| 1777680005 | 17.22° C | 50% | 1001.6 hPa | 0 mm | - | 0 W/m² | - |
| 1777679105 | 17.78° C | 47% | 1001.5 hPa | 0 mm | - | 0 W/m² | - |
| 1777674006 | 19.44° C | 41% | 1001.5 hPa | 0 mm | - | 0 W/m² | - |
| 1777672505 | 19.44° C | 39% | 1001.7 hPa | 0 mm | - | 0 W/m² | - |
| 1777672205 | 19.44° C | 40% | 1001.6 hPa | 0 mm | - | 0 W/m² | - |
| 1777671004 | 20° C | 42% | 1001.5 hPa | 0 mm | - | 0 W/m² | - |
| 1777665304 | 20.56° C | 36% | 1002.6 hPa | 0 mm | - | 0 W/m² | - |
| 1777663205 | 20° C | 37% | 1003 hPa | 0 mm | - | 0 W/m² | - |
| 1777659906 | 19.44° C | 37% | 1004 hPa | 0 mm | - | 0 W/m² | - |
| 1777658706 | 19.44° C | 40% | 1004.4 hPa | 0 mm | - | 0 W/m² | - |
| 1777657804 | 19.44° C | 38% | 1004.4 hPa | 0 mm | - | 665 W/m² | - |
| 1777656004 | 18.89° C | 38% | 1004.6 hPa | 0 mm | - | 45 W/m² | - |
| 1777651804 | 16.67° C | 39% | 1005.7 hPa | 0 mm | - | 413 W/m² | - |
| 1777648505 | 16.67° C | 38% | 1006.3 hPa | 0 mm | - | 468 W/m² | - |
| 1777648204 | 16.67° C | 42% | 1006.3 hPa | 0 mm | - | 382 W/m² | - |
| 1777647304 | 16.67° C | 39% | 1006.2 hPa | 0 mm | - | 567 W/m² | - |
| 1777645504 | 16.11° C | 43% | 1006.2 hPa | 0 mm | - | 750 W/m² | - |
| 1777643704 | 16.11° C | 42% | 1006.4 hPa | 0 mm | - | 512 W/m² | - |
| 1777642504 | 15.56° C | 45% | 1006.4 hPa | 0 mm | - | 520 W/m² | - |
| 1777641604 | 15° C | 51% | 1006.3 hPa | 0 mm | - | 458 W/m² | - |
* Rain latest hour (hover to see other rain measurements)
** Current wind speed in m/s (hover to see current wind gust speed)